Terminal Aerodrome Forecast
Issued by NWS

Home | Current Version | Previous Version | Graphics & Text | Print | Product List | Glossary On
Versions: 1 2 3 4 5 6 7 8 9 10 11 12 13 14 15 16 17 18 19 20 21 22 23 24 25 26 27 28 29 30 31 32 33 34 35 36 37 38
554
FTUS43 KLOT 210910 AAB
TAFORD
TAF AMD
KORD 210910Z 2109/2212 11004KT P6SM BKN090 OVC250
     FM211500 12006KT P6SM BKN100 PROB30 2122/2202 5SM TSRA BKN050CB
     FM220500 18007KT P6SM BKN100 PROB30 2208/2210 3SM TSRA
      BKN035CB=

USA.gov is the U.S. government's official web portal to all federal, state and local government web resources and services.